x

Lake Winnipeg Narrows (45145) Wave Buoy

4:00am - Sat 23rd Sep 2017 All times are UTC.

  • Sig Wave height 3.6ft
  • Wind
    16mph, 18mph gusts
  • Sea Temp 58°f
  • Air Temp 52°f
  • Sea Pressure 1015.3mb

More Historic Weather Station data

Upgrade to MSW Pro to gain access to the past 30 days of data for over 8000 Wavebouys and Weather Stations around the globe.

Join

Comparision Forecast

View Surf forecast
   
Sat 09/23 4:00am 3.5ft 16 18 mph 1015.3mb 58f 52f
3:00am 3.5ft 16 18 mph 1015.3mb 58f 52f
2:00am 3.5ft 13 16 mph 1015.5mb 58f 52f
1:00am 4.5ft 16 20 mph 1014.5mb 58f 52f
12:00am 4.5ft 18 22 mph 1015mb 58f 53f
Fri 09/22 11:00pm 5ft 22 29 mph 1013.7mb 58f 53f
10:00pm 4.5ft 22 27 mph 1014.4mb 58f 54f
9:00pm 4.5ft 18 20 mph 1015.6mb 58f 55f
8:00pm 4.5ft 18 22 mph 1014.8mb 58f 55f
7:00pm 4.5ft 18 20 mph 1015.2mb 58f 55f
6:00pm 3ft 13 16 mph 1014.9mb 58f 56f
5:00pm 2ft 13 16 mph 1015.4mb 58f 56f
4:00pm 1ft 11 16 mph 1014.9mb 58f 56f
3:00pm 1.3ft 9 11 mph 1014.2mb 58f 55f
2:00pm 1.6ft 9 9 mph 1014.3mb 58f 56f
1:00pm 2.5ft 9 11 mph 1013mb 58f 57f
12:00pm 2.5ft 9 11 mph 1012.4mb 58f 56f
11:00am 4.5ft 13 16 mph 1011.9mb 58f 55f
10:00am 2ft 18 20 mph 1011.4mb 58f 55f
9:00am 1ft 13 16 mph 1010.2mb 58f 56f
8:00am 0.3ft 9 11 mph 1010.2mb 58f 56f
7:00am 0.3ft 7 9 mph 1010.1mb 58f 57f
6:00am 0.3ft 7 7 mph 1010mb 58f 57f
5:00am 0.3ft 2 4 mph 1009.7mb 58f 58f
4:00am 0.7ft 2 4 mph 1009.5mb 58f 58f
3:00am 2ft 4 4 mph 1009.4mb 58f 58f
2:00am 3.5ft 7 9 mph 1009mb 58f 58f
1:00am 4ft 11 13 mph 1008.5mb 58f 58f
12:00am 4.5ft 13 16 mph 1008.4mb 58f 58f
Thu 09/21 11:00pm 3.5ft 16 20 mph 1007.5mb 58f 57f
10:00pm 4ft 11 13 mph 1008.2mb 58f 57f
9:00pm 5ft 16 20 mph 1007.7mb 58f 58f
8:00pm 5.5ft 22 27 mph 1007.3mb 58f 59f
4:00pm 4.5ft 22 27 mph 1005.4mb 58f 58f
3:00pm 6ft 22 27 mph 1005.3mb 58f 58f
2:00pm 4.5ft 18 25 mph 1005.4mb 58f 58f
1:00pm 4.5ft 18 22 mph 1005.7mb 58f 57f
12:00pm 5ft 22 27 mph 1005mb 58f 56f
11:00am 5ft 18 20 mph 1005mb 58f 56f
10:00am 4.5ft 13 18 mph 1004.9mb 58f 58f
9:00am 5ft 20 22 mph 1005mb 58f 58f
8:00am 3.5ft 18 20 mph 1004.8mb 58f 58f
7:00am 4ft 18 20 mph 1004.4mb 58f 58f
6:00am 4ft 18 22 mph 1004.1mb 58f 58f
5:00am 4.5ft 18 22 mph 1003.9mb 58f 58f
4:00am 4.5ft 18 22 mph 1003.4mb 58f 59f
3:00am 4.5ft 20 25 mph 1002.5mb 58f 61f
2:00am 6ft 20 25 mph 1001.7mb 58f 61f
1:00am 4ft 16 18 mph 1001.1mb 58f 62f
12:00am 4ft 16 18 mph 1000.5mb 58f 63f
Wed 09/20 11:00pm 4ft 16 20 mph 1000.4mb 58f 63f
10:00pm 3.5ft 16 18 mph 1000.1mb 58f 63f
9:00pm 4ft 13 16 mph 999.7mb 58f 61f
8:00pm 4.5ft 18 22 mph 999mb 58f 62f
7:00pm 4.5ft 20 25 mph 998.4mb 58f 60f
6:00pm 5.5ft 22 27 mph 997.2mb 58f 57f
5:00pm  -  25
mph
996.4mb 58f 56f
4:00pm 6ft 25 31 mph 995.7mb 58f 55f
3:00pm 5ft 25 31 mph 994.6mb 58f 54f
2:00pm 4.5ft 20 25 mph 993.8mb 58f 54f
1:00pm 5.5ft 25 31 mph 992mb 58f 56f
12:00pm 5ft 20 22 mph 990.9mb 58f 59f
11:00am 4.5ft 22 27 mph 991.8mb 58f 61f
10:00am 5ft 20 25 mph 992.3mb 58f 61f
9:00am 5ft 29 34 mph 992.3mb 58f 60f
8:00am 4.5ft 25 31 mph 995.1mb 58f 60f
7:00am 4ft 20 22 mph 997.1mb 58f 60f
6:00am 4ft 16 18 mph 999.8mb 58f 61f
5:00am 4.5ft 16 20 mph 1000.1mb 58f 61f
4:00am 4.5ft 25 27 mph 999mb 58f 61f
3:00am 3.5ft 22 27 mph 1000.1mb 58f 61f
2:00am 4ft 16 20 mph 1002.4mb 58f 61f
1:00am 4.5ft 16 20 mph 1003.1mb 58f 61f
12:00am 5ft 25 31 mph 1002.3mb 58f 61f
Tue 09/19 11:00pm 5ft 27 34 mph 1002.4mb 58f 60f
10:00pm 4.5ft 20 25 mph 1004.8mb 58f 60f
9:00pm 4ft 18 22 mph 1005mb 58f 60f
8:00pm 4.5ft 20 22 mph 1006mb 58f 60f
7:00pm 4.5ft 20 25 mph 1007.1mb 58f 60f
6:00pm 4.5ft 18 20 mph 1007.9mb 58f 60f
5:00pm 4ft 16 18 mph 1008.4mb 58f 58f
4:00pm 4.5ft 18 20 mph 1009.4mb 58f 55f
3:00pm 4.5ft 18 20 mph 1009.9mb 58f 52f
2:00pm 4.5ft 18 20 mph 1010.8mb 58f 50f
1:00pm 4ft 18 20 mph 1011.1mb 58f 49f
12:00pm 5.5ft 18 22 mph 1010.9mb 58f 49f
11:00am 4.5ft 18 22 mph 1011.1mb 58f 49f
10:00am 4.5ft 18 22 mph 1011.5mb 58f 49f
9:00am 5ft 18 20 mph 1011.7mb 58f 49f
8:00am 4.5ft 18 22 mph 1011.9mb 58f 50f
7:00am 4.5ft 18 20 mph 1012.2mb 58f 50f
6:00am 4.5ft 20 22 mph 1012.3mb 59f 51f